Aeroporto :
LOGIN :

Iscrizione | Disclaimer

   EN    FR    IT 

 










Sommario :    VFR   VFR Marginale   IFR   IFR Intensivo   IFR Molto Intensivo
Visibilità : 
Base nubi : 
>= 8 km
>= 3000ft
5 / 8 km
1000 / 3000 ft
1500m / 5 km
500 / 1000 ft
800 / 1500m
200 / 500 ft
< 800m
< 200 ft
Simboli :   Temporali  Nebbia  Neve Forte  Precipitazioni Forti  Vento > 20 kt
SIGMETs :   Varie  Temporali  Ghiacco  Turbolenza  Onda orograficha  Ceneri Vulcaniche






- Altitudine del aeroporto : 358 ft


EGTC - Cranfield

ULTIMO METAR :
  • 171150Z 23022KT 9999 BKN022 08/04 Q1006

METARs OBSOLETI :
  • 171120Z 23022KT 9999 BKN023 08/04 Q1006
  • 171050Z 23022G34KT 9999 SCT024 07/03 Q1005
  • 171020Z 22023KT 9999 SCT025 07/02 Q1005
  • 170950Z 22024KT 9999 FEW025 06/02 Q1004
  • 170920Z 22020KT 06/02 Q1004
  • 170850Z 22019KT CAVOK 05/01 Q1004

TAF TAF EGTC
Valido dal 17 a 12 ore il 17 a 19 ore UTC


171104Z 1712/1719 23020KT 9999 FEW025
TEMPO 1712/1719 7000 SHRA
TEMPO 1712/1715 24023G33KT
PROB40
TEMPO 1712/1719 4000 +SHRA BKN014CB
PROB30
TEMPO 1715/1719 24023G33KT



MetMap, La meteo Aeronautica in un colpo d'occhio ! - Copyright ORBIFLY Dicembre 2007 - Disclaimer

ORBIFLY MET'MAP TEAM :

Programmazione e sviluppo : Alexandra Zaïnal
Concezione : Baudouin d'Aumeries
Aiuto per la programmazione : Marc-Olivier Méhu
Supporto tecnico e logistico : Manuel Goepfert
Aiuto per la traduzione : Arnaldo La Scala

Contatto : metmap@orbifly.com




FONTI E CREDITI :

   NOAA